Time;durP1;ratioP1;P1;durP2;ratioP2;P2;SDS_P1;SDS_P2;PMS_P1;PMS_P2;Temp;Humidity;BMP_temperature;BMP_pressure;BME280_temperature;BME280_humidity;BME280_pressure;Samples;Min_cycle;Max_cycle;Signal;HPM_P1;HPM_P2
2022/11/30 00:01:38;;;;;;;76.68;42.67;;;7.60;99.90;;;;;;5075630;28;20020;-61
2022/11/30 00:04:24;;;;;;;77.43;41.67;;;7.60;99.90;;;;;;5070542;28;20044;-56
2022/11/30 00:07:09;;;;;;;74.40;37.22;;;7.60;99.90;;;;;;5074679;28;20059;-58
2022/11/30 00:09:55;;;;;;;68.03;37.28;;;7.60;99.90;;;;;;5080946;28;20027;-57
2022/11/30 00:12:41;;;;;;;67.88;37.55;;;7.70;99.90;;;;;;5074819;28;20029;-59
2022/11/30 00:15:27;;;;;;;73.32;36.35;;;7.60;99.90;;;;;;5065975;28;20094;-56
2022/11/30 00:18:15;;;;;;;64.13;34.53;;;7.70;99.90;;;;;;5071735;28;20028;-57
2022/11/30 00:21:03;;;;;;;63.70;35.45;;;7.70;99.90;;;;;;5071712;28;20025;-55
2022/11/30 00:23:48;;;;;;;68.75;34.97;;;7.70;99.90;;;;;;5093778;28;20051;-57
2022/11/30 00:26:35;;;;;;;67.95;34.30;;;7.70;99.90;;;;;;5072832;28;20111;-57
2022/11/30 00:29:21;;;;;;;75.90;37.95;;;7.70;99.90;;;;;;5107669;28;20032;-57
2022/11/30 00:32:06;;;;;;;74.50;36.15;;;7.50;99.90;;;;;;5080935;28;20151;-57
2022/11/30 00:34:53;;;;;;;62.03;35.47;;;7.60;99.90;;;;;;5084939;28;20400;-58
2022/11/30 00:37:39;;;;;;;68.80;35.65;;;7.60;99.90;;;;;;5088896;28;20089;-58
2022/11/30 00:40:25;;;;;;;65.25;36.63;;;7.60;99.90;;;;;;5076764;28;20036;-59
2022/11/30 00:43:10;;;;;;;66.03;36.38;;;7.60;99.90;;;;;;5056485;28;20029;-57
2022/11/30 00:45:57;;;;;;;60.30;34.28;;;7.60;99.90;;;;;;5072239;28;20043;-55
2022/11/30 00:48:43;;;;;;;64.88;34.95;;;7.60;99.90;;;;;;5072412;28;20091;-55
2022/11/30 00:51:28;;;;;;;62.35;34.63;;;7.60;99.90;;;;;;5082668;28;20115;-58
2022/11/30 00:54:14;;;;;;;66.90;36.17;;;7.70;99.90;;;;;;5076461;28;20373;-57
2022/11/30 00:57:00;;;;;;;63.17;34.20;;;7.70;99.90;;;;;;5090544;28;20538;-54
2022/11/30 00:59:46;;;;;;;64.38;35.15;;;7.60;99.90;;;;;;5088388;28;20432;-57
2022/11/30 01:02:32;;;;;;;61.92;34.42;;;7.70;99.90;;;;;;5072114;28;20024;-58
2022/11/30 01:05:18;;;;;;;63.67;34.80;;;7.70;99.90;;;;;;5066193;28;20565;-56
2022/11/30 01:08:06;;;;;;;59.85;34.15;;;7.70;99.90;;;;;;5089491;28;20502;-59
2022/11/30 01:10:56;;;;;;;59.20;33.92;;;7.70;99.90;;;;;;5078404;28;20025;-57
2022/11/30 01:13:42;;;;;;;59.55;35.08;;;7.70;99.90;;;;;;5056855;28;20028;-57
2022/11/30 01:16:31;;;;;;;62.58;33.95;;;7.70;99.90;;;;;;5087633;28;20157;-57
2022/11/30 01:19:17;;;;;;;56.72;33.55;;;7.70;99.90;;;;;;5090690;28;20400;-57
2022/11/30 01:22:03;;;;;;;53.58;33.30;;;7.70;99.90;;;;;;5070640;28;20043;-58
2022/11/30 01:24:49;;;;;;;55.25;32.30;;;7.70;99.90;;;;;;5073204;28;20090;-54
2022/11/30 01:27:35;;;;;;;62.40;34.80;;;7.70;99.90;;;;;;5090103;28;20024;-56
2022/11/30 01:30:21;;;;;;;59.50;31.38;;;7.70;99.90;;;;;;5084266;28;20048;-57
2022/11/30 01:33:07;;;;;;;59.75;33.15;;;7.80;99.90;;;;;;5056376;28;20040;-55
2022/11/30 01:36:13;;;;;;;60.55;33.58;;;7.80;99.90;;;;;;5081370;28;20024;-57
2022/11/30 01:38:59;;;;;;;52.25;30.70;;;7.80;99.90;;;;;;5090426;28;20051;-56
2022/11/30 01:41:45;;;;;;;56.10;33.47;;;7.80;99.90;;;;;;5073489;28;20112;-56
2022/11/30 01:44:31;;;;;;;57.53;31.75;;;7.80;99.90;;;;;;5056880;28;20029;-57
2022/11/30 01:47:19;;;;;;;53.10;32.97;;;7.80;99.90;;;;;;5091785;28;20077;-58
2022/11/30 01:50:16;;;;;;;60.08;33.38;;;7.80;99.90;;;;;;5088788;28;20077;-59
2022/11/30 01:53:04;;;;;;;56.42;32.05;;;7.80;99.90;;;;;;5090165;28;20032;-56
2022/11/30 01:55:50;;;;;;;53.10;31.38;;;7.70;99.90;;;;;;5082755;28;20485;-51
2022/11/30 01:58:36;;;;;;;55.78;32.50;;;7.70;99.90;;;;;;5071574;28;20033;-52
2022/11/30 02:01:21;;;;;;;55.72;32.70;;;7.80;99.90;;;;;;5066627;28;20078;-55
2022/11/30 02:04:13;;;;;;;53.88;33.13;;;7.80;99.90;;;;;;5076728;28;20032;-56
2022/11/30 02:07:01;;;;;;;50.38;30.55;;;7.80;99.90;;;;;;5074329;28;20036;-56
2022/11/30 02:09:47;;;;;;;53.58;30.23;;;7.80;99.90;;;;;;5070916;28;20374;-56
2022/11/30 02:12:44;;;;;;;50.80;30.83;;;7.80;99.90;;;;;;5055649;28;20025;-56
2022/11/30 02:15:39;;;;;;;46.42;29.50;;;7.80;99.90;;;;;;5072078;28;20024;-55
2022/11/30 02:18:45;;;;;;;43.03;27.73;;;7.80;99.90;;;;;;5089908;28;20028;-54
2022/11/30 02:22:19;;;;;;;38.67;25.67;;;7.80;99.90;;;;;;5058766;28;20033;-55
2022/11/30 02:25:27;;;;;;;31.95;24.02;;;7.80;99.90;;;;;;5025408;28;20025;-53
2022/11/30 02:28:37;;;;;;;36.47;24.83;;;7.80;99.90;;;;;;5073582;28;20107;-50
2022/11/30 02:31:30;;;;;;;31.30;24.08;;;7.80;99.90;;;;;;5088310;28;20238;-56
2022/11/30 02:34:19;;;;;;;30.95;21.55;;;7.80;99.90;;;;;;5093757;28;20080;-56
2022/11/30 02:37:07;;;;;;;28.38;22.30;;;7.80;99.90;;;;;;5074047;28;20424;-57
2022/11/30 02:39:54;;;;;;;26.92;21.48;;;7.80;99.90;;;;;;5073569;28;20021;-57
2022/11/30 02:42:40;;;;;;;27.65;21.60;;;7.80;99.90;;;;;;5092748;28;20044;-58
2022/11/30 02:45:34;;;;;;;26.73;21.50;;;7.70;99.90;;;;;;5089005;28;20032;-58
2022/11/30 02:48:31;;;;;;;27.23;22.00;;;7.80;99.90;;;;;;5074920;28;20021;-55
2022/11/30 02:51:21;;;;;;;28.80;21.27;;;7.80;99.90;;;;;;5083073;28;20020;-58
2022/11/30 02:54:07;;;;;;;28.00;22.73;;;7.80;99.90;;;;;;5093136;28;20036;-56
2022/11/30 02:56:53;;;;;;;26.85;21.55;;;7.80;99.90;;;;;;5062463;28;20036;-54
2022/11/30 02:59:40;;;;;;;26.45;21.08;;;7.80;99.90;;;;;;5074037;28;20067;-55
2022/11/30 03:02:26;;;;;;;27.83;20.83;;;7.80;99.90;;;;;;5073953;28;20036;-57
2022/11/30 03:05:11;;;;;;;26.25;20.65;;;7.80;99.90;;;;;;5074759;28;20029;-57
2022/11/30 03:07:57;;;;;;;26.42;21.00;;;7.80;99.90;;;;;;5079125;28;20144;-59
2022/11/30 03:10:43;;;;;;;25.30;21.33;;;7.80;99.90;;;;;;5082661;28;20393;-56
2022/11/30 03:13:30;;;;;;;26.33;21.35;;;7.80;99.90;;;;;;5074489;28;20098;-59
2022/11/30 03:16:16;;;;;;;25.85;20.60;;;7.80;99.90;;;;;;5085616;28;20028;-57
2022/11/30 03:19:02;;;;;;;26.70;20.20;;;7.70;99.90;;;;;;5092619;28;20021;-56
2022/11/30 03:21:48;;;;;;;26.33;21.35;;;7.70;99.90;;;;;;5091627;28;20108;-58
2022/11/30 03:24:34;;;;;;;27.73;20.40;;;7.70;99.90;;;;;;5078093;28;20396;-58
2022/11/30 03:27:21;;;;;;;26.02;20.52;;;7.60;99.90;;;;;;5072671;28;20033;-56
2022/11/30 03:30:08;;;;;;;26.55;20.40;;;7.60;99.90;;;;;;5075244;28;20033;-56
2022/11/30 03:32:53;;;;;;;26.20;21.73;;;7.60;99.90;;;;;;5093025;28;20078;-60
2022/11/30 03:35:39;;;;;;;30.85;21.23;;;7.70;99.90;;;;;;5071838;28;20017;-56
2022/11/30 03:38:25;;;;;;;26.20;20.20;;;7.70;99.90;;;;;;5072918;28;20025;-57
2022/11/30 03:41:13;;;;;;;27.80;20.85;;;7.60;99.90;;;;;;5082814;28;20028;-57
2022/11/30 03:43:59;;;;;;;27.83;21.17;;;7.60;99.90;;;;;;5093261;28;20025;-54
2022/11/30 03:46:45;;;;;;;28.20;20.90;;;7.60;99.90;;;;;;5077614;28;20035;-55
2022/11/30 03:49:31;;;;;;;27.60;21.88;;;7.50;99.90;;;;;;5073628;28;20033;-57
2022/11/30 03:52:17;;;;;;;24.13;19.65;;;7.50;99.90;;;;;;5090894;28;20035;-58
2022/11/30 03:55:03;;;;;;;25.30;21.48;;;7.50;99.90;;;;;;5089096;28;20039;-58
2022/11/30 03:57:49;;;;;;;24.38;19.90;;;7.50;99.90;;;;;;5073250;28;20039;-57
2022/11/30 04:00:35;;;;;;;28.20;20.88;;;7.50;99.90;;;;;;5079798;28;20036;-58
2022/11/30 04:03:21;;;;;;;26.95;20.95;;;7.50;99.90;;;;;;5090968;28;20496;-55
2022/11/30 04:06:09;;;;;;;25.88;21.05;;;7.60;99.90;;;;;;5079067;28;20079;-59
2022/11/30 04:08:55;;;;;;;29.73;20.90;;;7.60;99.90;;;;;;5084838;28;20047;-56
2022/11/30 04:11:41;;;;;;;23.65;19.38;;;7.60;99.90;;;;;;5091287;28;20047;-55
2022/11/30 04:14:26;;;;;;;27.08;20.13;;;7.50;99.90;;;;;;5075785;28;20028;-55
2022/11/30 04:17:12;;;;;;;25.45;20.02;;;7.50;99.90;;;;;;5072889;28;20115;-56
2022/11/30 04:19:58;;;;;;;29.88;20.75;;;7.50;99.90;;;;;;5076872;28;20036;-57
2022/11/30 04:22:44;;;;;;;26.08;19.83;;;7.50;99.90;;;;;;5091588;28;20028;-53
2022/11/30 04:25:30;;;;;;;25.58;19.67;;;7.50;99.90;;;;;;5071559;28;20125;-57
2022/11/30 04:28:17;;;;;;;24.42;18.77;;;7.40;99.90;;;;;;5076502;28;20032;-55
2022/11/30 04:31:03;;;;;;;23.63;18.98;;;7.40;99.90;;;;;;5090874;28;20084;-58
2022/11/30 04:33:53;;;;;;;26.45;19.45;;;7.40;99.90;;;;;;5082040;28;20366;-56
2022/11/30 04:36:39;;;;;;;26.85;20.55;;;7.40;99.90;;;;;;5072421;28;20028;-58
2022/11/30 04:39:25;;;;;;;30.10;19.50;;;7.50;99.90;;;;;;5084979;28;20036;-56
2022/11/30 04:42:11;;;;;;;29.27;20.45;;;7.40;99.90;;;;;;5090590;28;20028;-57
2022/11/30 04:44:56;;;;;;;23.70;18.52;;;7.50;99.90;;;;;;5073775;28;20101;-56
2022/11/30 04:47:42;;;;;;;25.13;18.60;;;7.50;99.90;;;;;;5072367;28;20027;-58
2022/11/30 04:50:28;;;;;;;25.90;19.85;;;7.50;99.90;;;;;;5071970;28;20033;-59
2022/11/30 04:53:14;;;;;;;24.10;18.92;;;7.50;99.90;;;;;;5056984;28;20024;-54
2022/11/30 04:56:08;;;;;;;27.67;19.88;;;7.50;99.90;;;;;;5090524;28;20039;-57
2022/11/30 04:58:54;;;;;;;24.20;18.75;;;7.50;99.90;;;;;;5084174;28;20139;-58
2022/11/30 05:01:40;;;;;;;25.05;19.83;;;7.50;99.90;;;;;;5071995;28;20036;-57
2022/11/30 05:04:26;;;;;;;24.65;20.25;;;7.50;99.90;;;;;;5079001;28;20072;-57
2022/11/30 05:07:12;;;;;;;26.60;19.52;;;7.50;99.90;;;;;;5071384;28;20032;-55
2022/11/30 05:09:58;;;;;;;26.27;19.48;;;7.50;99.90;;;;;;5085035;28;20032;-58
2022/11/30 05:12:44;;;;;;;25.70;19.63;;;7.40;99.90;;;;;;5091296;28;20500;-58
2022/11/30 05:15:30;;;;;;;26.02;19.50;;;7.40;99.90;;;;;;5071857;28;20753;-57
2022/11/30 05:18:16;;;;;;;26.77;19.98;;;7.40;99.90;;;;;;5070274;28;20029;-55
2022/11/30 05:21:02;;;;;;;25.92;19.30;;;7.40;99.90;;;;;;5094395;28;20027;-56
2022/11/30 05:23:48;;;;;;;27.02;20.52;;;7.40;99.90;;;;;;5110749;28;20024;-56
2022/11/30 05:26:35;;;;;;;29.67;20.95;;;7.40;99.90;;;;;;5096635;28;20020;-54
2022/11/30 05:29:21;;;;;;;28.95;20.15;;;7.40;99.90;;;;;;5104643;28;20365;-58
2022/11/30 05:32:07;;;;;;;25.40;19.30;;;7.40;99.90;;;;;;5090149;28;20036;-57
2022/11/30 05:34:53;;;;;;;25.23;20.02;;;7.40;99.90;;;;;;5080358;28;20096;-56
2022/11/30 05:37:39;;;;;;;28.52;20.10;;;7.40;99.90;;;;;;5070179;28;20036;-57
2022/11/30 05:40:26;;;;;;;24.80;19.17;;;7.40;99.90;;;;;;5075556;28;20031;-59
2022/11/30 05:43:12;;;;;;;28.25;19.40;;;7.40;99.90;;;;;;5088450;28;20103;-58
2022/11/30 05:46:03;;;;;;;26.60;20.30;;;7.40;99.90;;;;;;5070762;28;20031;-56
2022/11/30 05:48:49;;;;;;;29.60;21.42;;;7.40;99.90;;;;;;5070921;28;20582;-59
2022/11/30 05:51:35;;;;;;;26.48;20.38;;;7.40;99.90;;;;;;5087952;28;20032;-59
2022/11/30 05:54:21;;;;;;;28.33;19.90;;;7.40;99.90;;;;;;5091792;28;20035;-57
2022/11/30 05:57:06;;;;;;;24.35;19.25;;;7.40;99.90;;;;;;5071660;28;20082;-56
2022/11/30 05:59:52;;;;;;;31.17;21.13;;;7.40;99.90;;;;;;5073877;28;20025;-57
2022/11/30 06:02:38;;;;;;;27.52;20.20;;;7.40;99.90;;;;;;5074533;28;20026;-56
2022/11/30 06:05:26;;;;;;;27.52;19.80;;;7.40;99.90;;;;;;5080524;28;20024;-55
2022/11/30 06:08:11;;;;;;;27.50;21.17;;;7.30;99.90;;;;;;5093815;28;20028;-55
2022/11/30 06:10:59;;;;;;;25.13;18.77;;;7.30;99.90;;;;;;5084065;28;20027;-57
2022/11/30 06:13:45;;;;;;;30.00;20.83;;;7.30;99.90;;;;;;5074450;28;20562;-57
2022/11/30 06:16:31;;;;;;;29.35;21.00;;;7.30;99.90;;;;;;5088582;28;20399;-57
2022/11/30 06:19:17;;;;;;;26.52;20.08;;;7.30;99.90;;;;;;5094620;28;20028;-57
2022/11/30 06:22:03;;;;;;;28.02;21.30;;;7.30;99.90;;;;;;5075927;28;20087;-59
2022/11/30 06:24:49;;;;;;;27.08;20.42;;;7.30;99.90;;;;;;5075245;28;20028;-54
2022/11/30 06:27:35;;;;;;;29.63;21.02;;;7.20;99.90;;;;;;5075519;28;20051;-57
2022/11/30 06:30:21;;;;;;;30.55;22.08;;;7.20;99.90;;;;;;5073754;28;20036;-56
2022/11/30 06:33:07;;;;;;;29.88;21.27;;;7.20;99.90;;;;;;5073811;28;20033;-57
2022/11/30 06:35:53;;;;;;;27.27;20.17;;;7.20;99.90;;;;;;5074441;28;20074;-56
2022/11/30 06:38:39;;;;;;;29.15;22.42;;;7.20;99.90;;;;;;5074984;28;20028;-57
2022/11/30 06:41:25;;;;;;;30.77;21.98;;;7.10;99.90;;;;;;5075048;28;20060;-56
2022/11/30 06:44:11;;;;;;;29.10;20.52;;;7.10;99.90;;;;;;5083071;28;20082;-56
2022/11/30 06:46:57;;;;;;;31.83;22.25;;;7.00;99.90;;;;;;5093390;28;20381;-54
2022/11/30 06:49:43;;;;;;;30.98;21.35;;;7.10;99.90;;;;;;5066645;28;20028;-56
2022/11/30 06:52:30;;;;;;;31.30;21.35;;;7.20;99.90;;;;;;5059659;28;20061;-57
2022/11/30 06:55:16;;;;;;;28.83;20.77;;;7.10;99.90;;;;;;5092409;28;20059;-57
2022/11/30 06:58:07;;;;;;;31.80;22.27;;;7.10;99.90;;;;;;5093047;28;20153;-57
2022/11/30 07:00:53;;;;;;;32.83;24.00;;;7.10;99.90;;;;;;5074612;28;20032;-54
2022/11/30 07:03:40;;;;;;;29.83;22.45;;;7.10;99.90;;;;;;5076311;28;20403;-57
2022/11/30 07:06:26;;;;;;;34.08;23.35;;;7.10;99.90;;;;;;5092920;28;20057;-53
2022/11/30 07:09:13;;;;;;;35.85;24.80;;;7.00;99.90;;;;;;5092592;28;20394;-57
2022/11/30 07:11:59;;;;;;;32.40;24.23;;;7.00;99.90;;;;;;5092746;28;20639;-56
2022/11/30 07:14:45;;;;;;;34.70;24.70;;;7.10;99.90;;;;;;5079814;28;20033;-56
2022/11/30 07:17:31;;;;;;;29.00;23.00;;;7.10;99.90;;;;;;5073063;28;20060;-56
2022/11/30 07:20:17;;;;;;;31.50;23.10;;;7.20;99.90;;;;;;5073690;28;20108;-56
2022/11/30 07:26:08;;;;;;;31.88;21.17;;;7.30;99.90;;;;;;5093116;28;20024;-59
2022/11/30 07:28:56;;;;;;;33.22;21.48;;;7.30;99.90;;;;;;5084718;28;20366;-56
2022/11/30 07:31:42;;;;;;;29.95;22.05;;;7.30;99.90;;;;;;5072439;28;20106;-55
2022/11/30 07:34:28;;;;;;;28.40;21.67;;;7.30;99.90;;;;;;5085207;28;20028;-58
2022/11/30 07:37:14;;;;;;;35.40;22.70;;;7.30;99.90;;;;;;5093296;28;20084;-55
2022/11/30 07:40:00;;;;;;;31.98;22.55;;;7.30;99.90;;;;;;5062566;28;20416;-58
2022/11/30 07:42:46;;;;;;;30.40;21.48;;;7.20;99.90;;;;;;5058667;28;20509;-60
2022/11/30 07:45:32;;;;;;;30.67;21.92;;;7.20;99.90;;;;;;5073325;28;20043;-54
2022/11/30 07:48:18;;;;;;;29.83;21.63;;;7.20;99.90;;;;;;5073404;28;20448;-57
2022/11/30 07:51:06;;;;;;;36.97;23.30;;;7.20;99.90;;;;;;5063175;28;20515;-56
2022/11/30 07:53:55;;;;;;;32.72;22.58;;;7.30;99.90;;;;;;5087529;28;20028;-56
2022/11/30 07:56:41;;;;;;;31.02;22.45;;;7.20;99.90;;;;;;5058207;28;20390;-56
2022/11/30 07:59:27;;;;;;;38.75;23.17;;;7.20;99.90;;;;;;5082093;28;20504;-58
2022/11/30 08:02:12;;;;;;;37.28;23.38;;;7.20;99.90;;;;;;5089194;28;20500;-60
2022/11/30 08:04:58;;;;;;;34.22;24.08;;;7.20;99.90;;;;;;5058136;28;20685;-54
2022/11/30 08:07:49;;;;;;;37.38;25.27;;;7.20;99.90;;;;;;5073652;28;20044;-54
2022/11/30 08:10:34;;;;;;;39.17;24.65;;;7.00;99.90;;;;;;5072968;28;20025;-54
2022/11/30 08:13:20;;;;;;;38.60;25.67;;;7.00;99.90;;;;;;5082863;28;20024;-57
2022/11/30 08:16:16;;;;;;;37.25;25.73;;;7.10;99.90;;;;;;5083249;28;20112;-59
2022/11/30 08:19:02;;;;;;;40.10;27.83;;;7.00;99.90;;;;;;5080000;28;20020;-55
2022/11/30 08:21:48;;;;;;;41.42;27.75;;;7.00;99.90;;;;;;5091393;28;20036;-56
2022/11/30 08:24:34;;;;;;;49.28;28.75;;;7.00;99.90;;;;;;5078830;28;20147;-55
2022/11/30 08:27:20;;;;;;;42.72;27.55;;;7.10;99.90;;;;;;5072700;28;20029;-58
2022/11/30 08:30:06;;;;;;;41.60;26.92;;;7.10;99.90;;;;;;5060802;28;20039;-59
2022/11/30 08:32:52;;;;;;;44.28;28.13;;;7.10;99.90;;;;;;5072284;28;20028;-60
2022/11/30 08:35:38;;;;;;;44.00;27.88;;;7.20;99.90;;;;;;5092284;28;20035;-59
2022/11/30 08:38:24;;;;;;;50.33;29.10;;;7.20;99.90;;;;;;5090263;28;20020;-58
2022/11/30 08:41:13;;;;;;;53.30;31.80;;;7.30;99.90;;;;;;5072228;28;20036;-57
2022/11/30 08:43:59;;;;;;;51.55;30.15;;;7.30;99.90;;;;;;5077338;28;20091;-58
2022/11/30 08:46:45;;;;;;;49.58;30.95;;;7.20;99.90;;;;;;5090999;28;20024;-57
2022/11/30 08:49:31;;;;;;;53.95;33.05;;;7.30;99.90;;;;;;5071376;28;20040;-57
2022/11/30 08:52:17;;;;;;;58.83;34.88;;;7.20;99.90;;;;;;5073302;28;20103;-54
2022/11/30 08:55:03;;;;;;;54.30;34.67;;;7.30;99.90;;;;;;5091756;28;20040;-56
2022/11/30 08:57:49;;;;;;;57.92;35.15;;;7.30;99.90;;;;;;5084711;28;20060;-57
2022/11/30 09:00:35;;;;;;;51.90;32.75;;;7.30;99.90;;;;;;5056780;28;20164;-59
2022/11/30 09:03:21;;;;;;;53.33;32.75;;;7.50;99.90;;;;;;5079901;28;20082;-55
2022/11/30 09:06:18;;;;;;;57.10;35.13;;;7.60;99.90;;;;;;5057282;28;20508;-53
2022/11/30 09:09:05;;;;;;;57.13;33.35;;;7.60;99.90;;;;;;5086533;28;20396;-59
2022/11/30 09:11:51;;;;;;;55.88;35.20;;;7.70;99.90;;;;;;5090823;28;20024;-57
2022/11/30 09:14:37;;;;;;;48.88;31.02;;;7.70;99.90;;;;;;5071330;28;20040;-59
2022/11/30 09:17:23;;;;;;;51.65;33.20;;;7.70;99.90;;;;;;5067030;28;20111;-57
2022/11/30 09:20:09;;;;;;;56.78;34.88;;;7.60;99.90;;;;;;5072864;28;20055;-58
2022/11/30 09:22:58;;;;;;;53.65;32.65;;;7.60;99.90;;;;;;5062471;28;20446;-56
2022/11/30 09:25:44;;;;;;;59.38;33.60;;;7.60;99.90;;;;;;5076921;28;20032;-58
2022/11/30 09:28:30;;;;;;;53.10;33.00;;;7.60;99.90;;;;;;5056300;28;20416;-56
2022/11/30 09:31:18;;;;;;;53.40;33.38;;;7.70;99.90;;;;;;5069553;28;20059;-59
2022/11/30 09:34:04;;;;;;;56.25;33.92;;;7.80;99.90;;;;;;5090442;28;20089;-58
2022/11/30 09:36:50;;;;;;;59.28;34.72;;;7.80;99.90;;;;;;5067665;28;20024;-58
2022/11/30 09:39:36;;;;;;;56.97;35.20;;;7.80;99.90;;;;;;5075455;28;20033;-60
2022/11/30 09:42:28;;;;;;;61.17;36.42;;;7.80;99.90;;;;;;5069571;28;20089;-56
2022/11/30 09:45:29;;;;;;;52.38;34.28;;;7.80;99.90;;;;;;5094413;28;20028;-60
2022/11/30 09:48:23;;;;;;;53.35;33.63;;;7.80;99.90;;;;;;5076697;28;20702;-63
2022/11/30 09:51:16;;;;;;;57.72;35.80;;;7.70;99.90;;;;;;5076052;28;20515;-57
2022/11/30 09:54:09;;;;;;;60.47;35.20;;;7.70;99.90;;;;;;5075991;28;20038;-62
2022/11/30 09:56:55;;;;;;;62.97;36.65;;;7.70;99.90;;;;;;5064775;28;20028;-59
2022/11/30 09:59:47;;;;;;;63.67;36.17;;;7.70;99.90;;;;;;5080743;28;20021;-62
2022/11/30 10:02:39;;;;;;;56.42;36.03;;;7.70;99.90;;;;;;5094916;28;20031;-60
2022/11/30 10:05:47;;;;;;;59.22;36.65;;;7.60;99.90;;;;;;5093280;28;20415;-60
2022/11/30 10:09:02;;;;;;;61.08;38.22;;;7.60;99.90;;;;;;5074377;28;20024;-61
2022/11/30 10:12:07;;;;;;;60.63;36.87;;;7.60;99.90;;;;;;5066502;28;20020;-48
2022/11/30 10:15:29;;;;;;;61.03;37.92;;;7.70;99.90;;;;;;5085445;28;20051;-55
2022/11/30 10:19:05;;;;;;;61.28;37.78;;;7.60;99.90;;;;;;5078768;28;20036;-55
2022/11/30 10:22:29;;;;;;;63.80;39.22;;;7.70;99.90;;;;;;5069973;28;20127;-57
2022/11/30 10:25:21;;;;;;;58.90;36.55;;;7.70;99.90;;;;;;5073551;28;20082;-58
2022/11/30 10:28:17;;;;;;;59.28;37.38;;;7.60;99.90;;;;;;5078701;28;20411;-54
2022/11/30 10:31:08;;;;;;;68.85;40.42;;;7.60;99.90;;;;;;5079497;28;20023;-58
2022/11/30 10:33:57;;;;;;;68.63;37.50;;;7.70;99.90;;;;;;5093684;28;20063;-56
2022/11/30 10:36:50;;;;;;;61.45;39.03;;;7.80;99.90;;;;;;5093645;28;20028;-59
2022/11/30 10:39:40;;;;;;;61.70;37.60;;;7.80;99.90;;;;;;5094325;28;20103;-56
2022/11/30 10:42:41;;;;;;;66.03;38.33;;;8.00;99.90;;;;;;5093354;28;20024;-56
2022/11/30 10:45:29;;;;;;;61.85;38.15;;;8.00;99.90;;;;;;5085936;28;20021;-54
2022/11/30 10:48:19;;;;;;;74.97;44.50;;;8.00;99.90;;;;;;5075261;28;20123;-56
2022/11/30 10:51:06;;;;;;;68.00;41.45;;;7.90;99.90;;;;;;5075258;28;20456;-56
2022/11/30 10:53:52;;;;;;;65.63;38.75;;;7.90;99.90;;;;;;5073262;28;20040;-57
2022/11/30 10:56:39;;;;;;;65.78;38.85;;;7.90;99.90;;;;;;5074935;28;20068;-57
2022/11/30 10:59:40;;;;;;;62.95;37.42;;;8.00;99.90;;;;;;5074923;28;20021;-59
2022/11/30 11:02:36;;;;;;;64.30;39.38;;;8.00;99.90;;;;;;5058213;28;20116;-58
2022/11/30 11:05:58;;;;;;;68.90;39.58;;;8.10;99.90;;;;;;5061571;28;20016;-57
2022/11/30 11:08:45;;;;;;;58.67;37.10;;;8.10;99.90;;;;;;5059154;28;20047;-61
2022/11/30 11:11:36;;;;;;;64.65;39.47;;;8.10;99.90;;;;;;5044182;28;20400;-62
2022/11/30 11:14:25;;;;;;;65.47;38.72;;;8.10;99.90;;;;;;5059788;28;20040;-58
2022/11/30 11:17:16;;;;;;;65.10;39.35;;;8.00;99.90;;;;;;5073359;28;20101;-62
2022/11/30 11:20:05;;;;;;;68.80;40.38;;;7.90;99.90;;;;;;5069735;28;20549;-61
2022/11/30 11:22:51;;;;;;;63.60;38.63;;;7.90;99.90;;;;;;5086113;28;20024;-62
2022/11/30 11:25:41;;;;;;;63.53;39.83;;;7.90;99.90;;;;;;5095445;28;20024;-61
2022/11/30 11:28:28;;;;;;;64.85;39.70;;;8.00;99.90;;;;;;5094504;28;20401;-61
2022/11/30 11:31:28;;;;;;;65.28;39.05;;;8.00;99.90;;;;;;5094590;28;20086;-62
2022/11/30 11:34:30;;;;;;;60.40;37.40;;;8.00;99.90;;;;;;5079398;28;20023;-63
2022/11/30 11:37:32;;;;;;;62.22;40.65;;;8.00;99.90;;;;;;5080235;28;20396;-61
2022/11/30 11:40:21;;;;;;;68.40;40.67;;;7.90;99.90;;;;;;5093926;28;20032;-61
2022/11/30 11:43:15;;;;;;;65.05;40.03;;;7.80;99.90;;;;;;5094000;28;20389;-61
2022/11/30 11:46:12;;;;;;;64.77;40.37;;;7.80;99.90;;;;;;5094224;28;20077;-60
2022/11/30 11:49:06;;;;;;;62.15;39.92;;;7.80;99.90;;;;;;5093946;28;20038;-59
2022/11/30 11:52:12;;;;;;;65.43;39.70;;;7.80;99.90;;;;;;5092442;28;20024;-60
2022/11/30 11:55:04;;;;;;;63.67;40.05;;;7.90;99.90;;;;;;5092931;28;20107;-60
2022/11/30 11:57:57;;;;;;;68.28;41.45;;;7.80;99.90;;;;;;5092692;28;20024;-61
2022/11/30 12:00:44;;;;;;;66.03;39.92;;;7.90;99.90;;;;;;5094027;28;20081;-63
2022/11/30 12:03:38;;;;;;;71.30;40.75;;;7.80;99.90;;;;;;5094048;28;20518;-60
2022/11/30 12:06:26;;;;;;;70.10;41.03;;;7.70;99.90;;;;;;5094071;28;20099;-61
2022/11/30 12:09:38;;;;;;;65.50;38.85;;;7.70;99.90;;;;;;5060613;28;20016;-60
2022/11/30 12:12:24;;;;;;;64.13;37.88;;;7.70;99.90;;;;;;5072879;28;20394;-61
2022/11/30 12:15:11;;;;;;;65.80;39.17;;;7.70;99.90;;;;;;5072969;28;20409;-58
2022/11/30 12:18:09;;;;;;;63.75;39.05;;;7.70;99.90;;;;;;5072615;28;20032;-60
2022/11/30 12:21:02;;;;;;;65.25;40.13;;;7.70;99.90;;;;;;5091799;28;20060;-62
2022/11/30 12:24:10;;;;;;;68.13;39.40;;;7.60;99.90;;;;;;5077682;28;20025;-61
2022/11/30 12:27:03;;;;;;;69.82;38.63;;;7.50;99.90;;;;;;5092126;28;20024;-60
2022/11/30 12:29:58;;;;;;;62.40;38.92;;;7.50;99.90;;;;;;5091465;28;20021;-56
2022/11/30 12:32:53;;;;;;;63.25;37.60;;;7.40;99.90;;;;;;5091760;28;20016;-57
2022/11/30 12:36:07;;;;;;;65.85;39.15;;;7.40;99.90;;;;;;5077653;28;20024;-58
2022/11/30 12:38:57;;;;;;;64.40;37.60;;;7.40;99.90;;;;;;5090574;28;20035;-56
2022/11/30 12:41:58;;;;;;;62.53;39.95;;;7.40;99.90;;;;;;5090373;28;20341;-58
2022/11/30 12:44:58;;;;;;;67.88;40.58;;;7.30;99.90;;;;;;5091046;28;20482;-57
2022/11/30 12:47:50;;;;;;;64.78;40.00;;;7.30;99.90;;;;;;5091015;28;20025;-56
2022/11/30 12:50:49;;;;;;;63.13;37.80;;;7.20;99.90;;;;;;5090369;28;20020;-57
2022/11/30 12:53:45;;;;;;;66.07;38.78;;;7.20;99.90;;;;;;5091237;28;20042;-58
2022/11/30 12:56:52;;;;;;;69.10;41.38;;;7.30;99.90;;;;;;5091304;28;20098;-59
2022/11/30 13:00:02;;;;;;;66.68;38.13;;;7.40;99.90;;;;;;5090291;28;20523;-57
2022/11/30 13:03:20;;;;;;;66.95;38.55;;;7.50;99.90;;;;;;5090031;28;20028;-57
2022/11/30 13:06:33;;;;;;;59.33;36.95;;;7.60;99.90;;;;;;5074502;28;20109;-57
2022/11/30 13:09:40;;;;;;;79.15;39.35;;;7.60;99.90;;;;;;5090135;28;20023;-57
2022/11/30 13:12:36;;;;;;;67.25;39.47;;;7.60;99.90;;;;;;5089450;28;20515;-55
2022/11/30 13:15:25;;;;;;;69.97;38.13;;;7.60;99.90;;;;;;5090211;28;20032;-56
2022/11/30 13:18:17;;;;;;;62.90;37.95;;;7.70;99.90;;;;;;5075308;28;20028;-57
2022/11/30 13:21:14;;;;;;;61.15;38.25;;;7.70;99.90;;;;;;5075223;28;20107;-59
2022/11/30 13:24:10;;;;;;;64.15;38.80;;;7.70;99.90;;;;;;5090997;28;20115;-58
2022/11/30 13:27:05;;;;;;;;;;;7.70;99.90;;;;;;5077093;28;20401;-55
2022/11/30 13:29:59;;;;;;;63.65;35.25;;;7.60;99.90;;;;;;5090734;28;19950;-53
2022/11/30 13:32:44;;;;;;;67.53;38.60;;;7.60;99.90;;;;;;5063327;28;20065;-56
2022/11/30 13:35:31;;;;;;;67.53;38.08;;;7.50;99.90;;;;;;5076349;28;20408;-58
2022/11/30 13:38:19;;;;;;;71.72;38.53;;;7.40;99.90;;;;;;5076012;28;20541;-58
2022/11/30 13:41:07;;;;;;;62.85;36.42;;;7.30;99.90;;;;;;5090363;28;20028;-56
2022/11/30 13:43:53;;;;;;;78.28;49.85;;;7.30;99.90;;;;;;5076516;28;20020;-56
2022/11/30 13:46:48;;;;;;;65.97;41.55;;;7.30;99.90;;;;;;5091535;28;20032;-58
2022/11/30 13:49:35;;;;;;;66.13;37.22;;;7.30;99.90;;;;;;5090345;28;20055;-58
2022/11/30 13:52:56;;;;;;;61.17;38.30;;;7.30;99.90;;;;;;5090620;28;20107;-58
2022/11/30 13:55:42;;;;;;;60.65;37.05;;;7.30;99.90;;;;;;5090732;28;20024;-56
2022/11/30 13:58:28;;;;;;;63.13;36.70;;;7.30;99.90;;;;;;5090240;28;20028;-59
2022/11/30 14:01:26;;;;;;;61.08;37.15;;;7.20;99.90;;;;;;5076253;28;20453;-61
2022/11/30 14:04:29;;;;;;;59.30;36.65;;;7.10;99.90;;;;;;5090246;28;20025;-57
2022/11/30 14:07:35;;;;;;;61.15;37.70;;;7.10;99.90;;;;;;5091163;28;20029;-57
2022/11/30 14:10:28;;;;;;;60.05;36.65;;;7.10;99.90;;;;;;5090751;28;20016;-58
2022/11/30 14:13:21;;;;;;;59.83;36.63;;;7.20;99.90;;;;;;5091002;28;20400;-58
2022/11/30 14:16:40;;;;;;;60.80;36.60;;;7.20;99.90;;;;;;5075413;28;20035;-58
2022/11/30 14:19:27;;;;;;;59.15;35.80;;;7.20;99.90;;;;;;5058971;28;20035;-57
2022/11/30 14:22:14;;;;;;;64.10;36.45;;;7.20;99.90;;;;;;5089345;28;20035;-61
2022/11/30 14:25:01;;;;;;;69.85;38.58;;;7.30;99.90;;;;;;5079030;28;20407;-57
2022/11/30 14:27:51;;;;;;;57.58;36.47;;;7.20;99.90;;;;;;5079325;28;20070;-57
2022/11/30 14:30:38;;;;;;;66.65;37.10;;;7.30;99.90;;;;;;5093319;28;20496;-58
2022/11/30 14:33:34;;;;;;;67.90;38.47;;;7.30;99.90;;;;;;5094180;28;20073;-63
2022/11/30 14:36:25;;;;;;;57.53;36.08;;;7.30;99.90;;;;;;5094294;28;20024;-56
2022/11/30 14:39:32;;;;;;;58.35;36.35;;;7.30;99.90;;;;;;5094783;28;20020;-57